sensor_id;sensor_type;location;lat;lon;timestamp;pressure;altitude;pressure_sealevel;temperature;humidity
67377;BME280;54261;46.086;6.588;2024-01-10T05:20:23;92756.97;;;-6.59;100.00
67377;BME280;54261;46.086;6.588;2024-01-10T05:25:25;92773.78;;;-3.37;98.02
67377;BME280;54261;46.086;6.588;2024-01-10T05:30:29;92763.50;;;-2.36;82.69
67377;BME280;54261;46.086;6.588;2024-01-10T05:35:31;92752.50;;;-2.09;80.78
67377;BME280;54261;46.086;6.588;2024-01-10T05:40:33;92749.97;;;-2.99;74.21
67377;BME280;54261;46.086;6.588;2024-01-10T05:45:35;92756.81;;;-1.50;74.15
67377;BME280;54261;46.086;6.588;2024-01-10T05:50:37;92749.66;;;-0.91;70.12
67377;BME280;54261;46.086;6.588;2024-01-10T05:55:40;92760.09;;;-0.80;69.27
67377;BME280;54261;46.086;6.588;2024-01-10T06:00:42;92744.16;;;-0.16;67.48
67377;BME280;54261;46.086;6.588;2024-01-10T06:05:45;92746.94;;;0.16;66.54
67377;BME280;54261;46.086;6.588;2024-01-10T06:10:47;92752.47;;;0.59;65.46
67377;BME280;54261;46.086;6.588;2024-01-10T06:15:49;92747.88;;;0.77;65.55
67377;BME280;54261;46.086;6.588;2024-01-10T06:20:52;92756.75;;;0.66;59.24
67377;BME280;54261;46.086;6.588;2024-01-10T06:25:54;92766.75;;;0.91;62.11
67377;BME280;54261;46.086;6.588;2024-01-10T06:30:56;92755.34;;;0.58;59.34
67377;BME280;54261;46.086;6.588;2024-01-10T06:35:58;92761.94;;;0.83;58.96
67377;BME280;54261;46.086;6.588;2024-01-10T06:41:08;92773.09;;;-2.78;56.19
67377;BME280;54261;46.086;6.588;2024-01-10T06:46:10;92771.81;;;-1.80;59.65
67377;BME280;54261;46.086;6.588;2024-01-10T06:51:16;92773.13;;;-0.73;53.85
67377;BME280;54261;46.086;6.588;2024-01-10T06:56:18;92771.19;;;-3.55;59.38
67377;BME280;54261;46.086;6.588;2024-01-10T07:01:20;92776.53;;;-1.24;57.60
67377;BME280;54261;46.086;6.588;2024-01-10T07:06:24;92780.25;;;-0.56;53.14
67377;BME280;54261;46.086;6.588;2024-01-10T07:11:26;92787.50;;;-2.56;55.49
67377;BME280;54261;46.086;6.588;2024-01-10T07:16:30;92790.00;;;-3.58;58.50
67377;BME280;54261;46.086;6.588;2024-01-10T07:21:35;92790.19;;;-4.28;59.93
67377;BME280;54261;46.086;6.588;2024-01-10T07:26:37;92796.28;;;-2.63;60.93
67377;BME280;54261;46.086;6.588;2024-01-10T07:31:39;92795.22;;;-1.66;57.99
67377;BME280;54261;46.086;6.588;2024-01-10T07:36:42;92779.03;;;-2.23;56.41
67377;BME280;54261;46.086;6.588;2024-01-10T07:41:44;92808.78;;;-0.53;54.96
67377;BME280;54261;46.086;6.588;2024-01-10T07:46:46;92799.69;;;-1.09;51.40
67377;BME280;54261;46.086;6.588;2024-01-10T07:51:48;92791.50;;;-2.78;57.16
67377;BME280;54261;46.086;6.588;2024-01-10T07:56:50;92796.22;;;-1.26;54.25
67377;BME280;54261;46.086;6.588;2024-01-10T08:01:55;92794.88;;;-0.48;53.02
67377;BME280;54261;46.086;6.588;2024-01-10T08:07:00;92807.84;;;0.32;51.90
67377;BME280;54261;46.086;6.588;2024-01-10T16:36:19;92808.16;;;-5.79;96.81
67377;BME280;54261;46.086;6.588;2024-01-10T16:41:21;92803.88;;;-3.88;76.99
67377;BME280;54261;46.086;6.588;2024-01-10T16:46:42;92812.03;;;-1.55;76.07
67377;BME280;54261;46.086;6.588;2024-01-10T16:51:44;92808.19;;;-0.21;73.90
67377;BME280;54261;46.086;6.588;2024-01-10T16:57:05;92817.19;;;-1.02;63.86
67377;BME280;54261;46.086;6.588;2024-01-10T17:02:07;92806.78;;;0.50;68.25
67377;BME280;54261;46.086;6.588;2024-01-10T17:07:09;92781.94;;;0.29;58.74
67377;BME280;54261;46.086;6.588;2024-01-10T17:12:11;92797.81;;;-0.45;57.03
67377;BME280;54261;46.086;6.588;2024-01-10T17:17:13;92793.41;;;-0.39;57.90
67377;BME280;54261;46.086;6.588;2024-01-10T17:22:15;92791.25;;;-0.08;56.63
67377;BME280;54261;46.086;6.588;2024-01-10T17:27:18;92784.34;;;0.75;58.71
67377;BME280;54261;46.086;6.588;2024-01-10T17:32:20;92792.66;;;1.16;57.53
67377;BME280;54261;46.086;6.588;2024-01-10T17:37:22;92800.91;;;1.53;55.44
67377;BME280;54261;46.086;6.588;2024-01-10T17:42:25;92808.34;;;1.56;51.76
67377;BME280;54261;46.086;6.588;2024-01-10T17:47:27;92793.34;;;0.35;52.69
67377;BME280;54261;46.086;6.588;2024-01-10T17:52:49;92797.63;;;1.40;53.92
67377;BME280;54261;46.086;6.588;2024-01-10T17:57:51;92772.88;;;1.57;53.17
67377;BME280;54261;46.086;6.588;2024-01-10T18:02:54;92782.88;;;1.87;52.12
67377;BME280;54261;46.086;6.588;2024-01-10T18:07:56;92784.13;;;1.80;48.90
67377;BME280;54261;46.086;6.588;2024-01-10T18:12:57;92790.31;;;1.91;49.05
67377;BME280;54261;46.086;6.588;2024-01-10T18:18:04;92791.56;;;1.45;48.39
67377;BME280;54261;46.086;6.588;2024-01-10T18:23:08;92786.22;;;0.13;50.55
67377;BME280;54261;46.086;6.588;2024-01-10T18:28:10;92794.94;;;-0.43;52.39
67377;BME280;54261;46.086;6.588;2024-01-10T18:33:13;92793.63;;;-0.06;50.47
67377;BME280;54261;46.086;6.588;2024-01-10T18:38:16;92805.91;;;-1.15;52.84
67377;BME280;54261;46.086;6.588;2024-01-10T18:43:19;92805.69;;;-0.96;53.97
67377;BME280;54261;46.086;6.588;2024-01-10T18:48:21;92806.09;;;-0.19;53.41
67377;BME280;54261;46.086;6.588;2024-01-10T18:53:24;92805.22;;;0.77;51.95
67377;BME280;54261;46.086;6.588;2024-01-10T18:58:26;92809.31;;;0.89;50.55
67377;BME280;54261;46.086;6.588;2024-01-10T19:03:28;92796.09;;;1.50;50.48
67377;BME280;54261;46.086;6.588;2024-01-10T19:08:30;92813.13;;;-1.10;52.58
67377;BME280;54261;46.086;6.588;2024-01-10T19:13:32;92807.06;;;-0.08;53.26
67377;BME280;54261;46.086;6.588;2024-01-10T19:18:40;92803.34;;;0.72;50.33
67377;BME280;54261;46.086;6.588;2024-01-10T19:23:43;92793.91;;;0.37;51.05
67377;BME280;54261;46.086;6.588;2024-01-10T19:28:48;92820.97;;;0.04;51.48
67377;BME280;54261;46.086;6.588;2024-01-10T19:33:50;92827.41;;;0.53;49.94
67377;BME280;54261;46.086;6.588;2024-01-10T19:38:55;92831.38;;;1.00;50.69
67377;BME280;54261;46.086;6.588;2024-01-10T19:43:58;92820.34;;;1.09;49.65
67377;BME280;54261;46.086;6.588;2024-01-10T19:48:59;92801.53;;;1.05;50.04
67377;BME280;54261;46.086;6.588;2024-01-10T19:54:02;92830.94;;;0.42;48.03
67377;BME280;54261;46.086;6.588;2024-01-10T19:59:03;92835.38;;;-0.55;52.24
67377;BME280;54261;46.086;6.588;2024-01-10T20:04:24;92840.88;;;0.74;51.13
67377;BME280;54261;46.086;6.588;2024-01-10T20:09:26;92838.03;;;0.81;50.39
67377;BME280;54261;46.086;6.588;2024-01-10T20:14:28;92852.13;;;1.41;49.42
67377;BME280;54261;46.086;6.588;2024-01-10T20:19:40;92862.16;;;1.72;49.01
67377;BME280;54261;46.086;6.588;2024-01-10T20:24:42;92861.41;;;1.16;47.70
67377;BME280;54261;46.086;6.588;2024-01-10T20:29:44;92864.94;;;1.87;48.18
67377;BME280;54261;46.086;6.588;2024-01-10T20:34:49;92875.97;;;2.12;47.60
67377;BME280;54261;46.086;6.588;2024-01-10T20:39:54;92874.81;;;-0.31;49.56
67377;BME280;54261;46.086;6.588;2024-01-10T20:44:56;92874.66;;;-4.77;62.25
67377;BME280;54261;46.086;6.588;2024-01-10T20:49:59;92883.25;;;-3.56;65.30
67377;BME280;54261;46.086;6.588;2024-01-10T20:55:03;92878.44;;;-0.83;56.44
67377;BME280;54261;46.086;6.588;2024-01-10T21:00:06;92879.47;;;0.36;54.21
67377;BME280;54261;46.086;6.588;2024-01-10T21:05:08;92890.63;;;0.60;50.92
67377;BME280;54261;46.086;6.588;2024-01-10T21:10:10;92886.00;;;-1.93;57.09
67377;BME280;54261;46.086;6.588;2024-01-10T21:15:12;92878.91;;;-0.69;53.63
67377;BME280;54261;46.086;6.588;2024-01-10T21:20:14;92884.75;;;-0.96;54.62
67377;BME280;54261;46.086;6.588;2024-01-10T21:25:16;92884.22;;;-1.39;53.53
67377;BME280;54261;46.086;6.588;2024-01-10T21:30:18;92889.84;;;-1.06;54.46
67377;BME280;54261;46.086;6.588;2024-01-10T21:35:20;92889.38;;;0.28;52.82
67377;BME280;54261;46.086;6.588;2024-01-10T21:40:23;92814.47;;;0.52;51.75
67377;BME280;54261;46.086;6.588;2024-01-10T21:45:25;92894.72;;;1.45;50.58
67377;BME280;54261;46.086;6.588;2024-01-10T21:50:27;92893.22;;;0.38;48.94
67377;BME280;54261;46.086;6.588;2024-01-10T21:55:29;92889.69;;;-0.42;52.00
67377;BME280;54261;46.086;6.588;2024-01-10T22:00:31;92893.34;;;-0.43;50.53
67377;BME280;54261;46.086;6.588;2024-01-10T22:05:33;92884.97;;;0.51;51.23
